WMT4HV LIPH-LATI
Flight info
| Callsign | WMT4HV |
|---|---|
| Flight time | 1h 8m |
| Altitude | 18000 |
| Route | INBUT5B INBUT N503 LAREN Q561 AKADO/N0339F190 L615 TULIK/N0427F350 DCT ROTAR DCT PUL DCT EBITA DCT ZDA DCT TIKSA DCT BALHA DCT MOKUN DCT TIBRI DCT PETAK |
| Aircraft | A21N/M-SDE1E2E3FGIJ1J4RWXY/LB1 |
Departure
| Time | 2026-04-27 19:58 |
|---|---|
| Airport | Treviso Airport (LIPH) |
Arrival
| Time | 2026-04-27 21:06 |
|---|---|
| Airport | Tirana International Airport Mother Teresa (LATI) |
| Time | Latitude | Longitude | Altitude | Speed | Heading |
|---|---|---|---|---|---|
| 2026-04-27 19:58 | 45.57289 | 11.95367 | 7606 ft | 276 kts | 245° |
| 2026-04-27 19:58 | 45.56470 | 11.92862 | 8431 ft | 279 kts | 245° |
| 2026-04-27 19:58 | 45.55641 | 11.90328 | 9262 ft | 283 kts | 245° |
| 2026-04-27 19:58 | 45.54794 | 11.87763 | 10053 ft | 290 kts | 243° |
| 2026-04-27 19:59 | 45.53537 | 11.85446 | 10468 ft | 307 kts | 219° |
| 2026-04-27 19:59 | 45.51602 | 11.84022 | 10840 ft | 324 kts | 194° |
| 2026-04-27 19:59 | 45.49332 | 11.83914 | 11466 ft | 331 kts | 169° |
| 2026-04-27 19:59 | 45.47218 | 11.85134 | 12184 ft | 336 kts | 147° |
| 2026-04-27 20:00 | 45.45322 | 11.87186 | 12941 ft | 341 kts | 141° |
| 2026-04-27 20:00 | 45.43463 | 11.89311 | 13668 ft | 346 kts | 141° |
| 2026-04-27 20:00 | 45.41580 | 11.91415 | 14330 ft | 351 kts | 142° |
| 2026-04-27 20:00 | 45.39619 | 11.93554 | 15001 ft | 356 kts | 143° |
| 2026-04-27 20:01 | 45.37638 | 11.95688 | 15671 ft | 360 kts | 143° |
| 2026-04-27 20:01 | 45.35822 | 11.98155 | 16317 ft | 365 kts | 126° |
| 2026-04-27 20:01 | 45.34640 | 12.01364 | 16929 ft | 370 kts | 109° |
| 2026-04-27 20:01 | 45.33852 | 12.04875 | 17564 ft | 375 kts | 106° |
| 2026-04-27 20:02 | 45.33094 | 12.08453 | 18210 ft | 380 kts | 106° |
| 2026-04-27 20:02 | 45.32306 | 12.12059 | 18759 ft | 385 kts | 107° |
| 2026-04-27 20:02 | 45.31487 | 12.15696 | 19347 ft | 388 kts | 107° |
| 2026-04-27 20:02 | 45.30646 | 12.19366 | 19945 ft | 392 kts | 107° |
| 2026-04-27 20:03 | 45.29795 | 12.23060 | 20520 ft | 395 kts | 107° |
| 2026-04-27 20:03 | 45.28934 | 12.26791 | 21062 ft | 399 kts | 107° |
| 2026-04-27 20:03 | 45.28070 | 12.30510 | 21645 ft | 402 kts | 107° |
| 2026-04-27 20:03 | 45.27189 | 12.34297 | 22190 ft | 406 kts | 107° |
| 2026-04-27 20:04 | 45.26298 | 12.38122 | 22726 ft | 409 kts | 107° |
| 2026-04-27 20:04 | 45.25402 | 12.41967 | 23261 ft | 413 kts | 107° |
| 2026-04-27 20:04 | 45.24494 | 12.45858 | 23776 ft | 417 kts | 108° |
| 2026-04-27 20:04 | 45.23878 | 12.48496 | 24070 ft | 419 kts | 108° |
| 2026-04-27 20:05 | 45.22655 | 12.53713 | 24671 ft | 422 kts | 108° |
| 2026-04-27 20:05 | 45.21722 | 12.57679 | 25125 ft | 425 kts | 108° |
| 2026-04-27 20:05 | 45.20784 | 12.61658 | 25566 ft | 427 kts | 107° |
| 2026-04-27 20:05 | 45.19840 | 12.65669 | 25967 ft | 431 kts | 107° |
| 2026-04-27 20:06 | 45.18882 | 12.69734 | 26188 ft | 439 kts | 107° |
| 2026-04-27 20:06 | 45.17902 | 12.73876 | 26388 ft | 448 kts | 107° |
| 2026-04-27 20:06 | 45.16904 | 12.78086 | 26722 ft | 452 kts | 107° |
| 2026-04-27 20:06 | 45.15899 | 12.82324 | 27131 ft | 455 kts | 107° |
| 2026-04-27 20:07 | 45.14889 | 12.86572 | 27542 ft | 457 kts | 107° |
| 2026-04-27 20:07 | 45.13881 | 12.90800 | 27943 ft | 459 kts | 107° |
| 2026-04-27 20:07 | 45.12844 | 12.95141 | 28338 ft | 461 kts | 107° |
| 2026-04-27 20:07 | 45.11824 | 12.99402 | 28721 ft | 463 kts | 107° |
| 2026-04-27 20:08 | 45.10786 | 13.03727 | 29092 ft | 466 kts | 107° |
| 2026-04-27 20:08 | 45.09740 | 13.08074 | 29468 ft | 468 kts | 107° |
| 2026-04-27 20:08 | 45.08688 | 13.12441 | 29821 ft | 470 kts | 107° |
| 2026-04-27 20:08 | 45.07630 | 13.16829 | 30239 ft | 470 kts | 107° |
| 2026-04-27 20:09 | 45.06577 | 13.21192 | 30629 ft | 469 kts | 107° |
| 2026-04-27 20:09 | 45.05519 | 13.25560 | 31003 ft | 468 kts | 107° |
| 2026-04-27 20:09 | 45.04460 | 13.29920 | 31355 ft | 468 kts | 107° |
| 2026-04-27 20:09 | 45.03402 | 13.34277 | 31694 ft | 467 kts | 107° |
| 2026-04-27 20:10 | 45.02345 | 13.38619 | 32031 ft | 467 kts | 107° |
| 2026-04-27 20:10 | 45.01286 | 13.42954 | 32363 ft | 466 kts | 107° |
| 2026-04-27 20:10 | 45.00225 | 13.47288 | 32682 ft | 466 kts | 107° |
| 2026-04-27 20:10 | 44.99162 | 13.51616 | 33026 ft | 465 kts | 107° |
| 2026-04-27 20:11 | 44.98119 | 13.55871 | 33347 ft | 464 kts | 107° |
| 2026-04-27 20:11 | 44.97060 | 13.60184 | 33653 ft | 464 kts | 107° |
| 2026-04-27 20:11 | 44.96003 | 13.64476 | 33948 ft | 463 kts | 107° |
| 2026-04-27 20:11 | 44.94943 | 13.68779 | 34219 ft | 463 kts | 107° |
| 2026-04-27 20:12 | 44.93890 | 13.73045 | 34607 ft | 458 kts | 107° |
| 2026-04-27 20:12 | 44.93182 | 13.75906 | 34869 ft | 455 kts | 107° |
| 2026-04-27 20:12 | 44.91803 | 13.81458 | 35119 ft | 451 kts | 107° |
| 2026-04-27 20:12 | 44.90767 | 13.85616 | 35131 ft | 448 kts | 107° |
| 2026-04-27 20:13 | 44.88147 | 13.93634 | 35115 ft | 451 kts | 124° |
| 2026-04-27 20:13 | 44.84210 | 14.00463 | 35113 ft | 452 kts | 129° |
| 2026-04-27 20:14 | 44.80152 | 14.07228 | 35088 ft | 452 kts | 129° |
| 2026-04-27 20:14 | 44.76132 | 14.14013 | 35083 ft | 452 kts | 129° |
| 2026-04-27 20:15 | 44.72107 | 14.20807 | 35089 ft | 451 kts | 129° |
| 2026-04-27 20:15 | 44.68761 | 14.26443 | 35087 ft | 451 kts | 129° |
| 2026-04-27 20:16 | 44.64739 | 14.33202 | 35083 ft | 450 kts | 129° |
| 2026-04-27 20:16 | 44.60712 | 14.39947 | 35086 ft | 450 kts | 129° |
| 2026-04-27 20:17 | 44.56688 | 14.46674 | 35093 ft | 451 kts | 129° |
| 2026-04-27 20:17 | 44.52650 | 14.53412 | 35088 ft | 451 kts | 129° |
| 2026-04-27 20:18 | 44.48613 | 14.60132 | 35085 ft | 451 kts | 129° |
| 2026-04-27 20:18 | 44.44562 | 14.66860 | 35084 ft | 451 kts | 129° |
| 2026-04-27 20:19 | 44.40519 | 14.73558 | 35087 ft | 450 kts | 129° |
| 2026-04-27 20:19 | 44.36738 | 14.80499 | 35091 ft | 449 kts | 122° |
| 2026-04-27 20:20 | 44.33273 | 14.87695 | 35085 ft | 449 kts | 122° |
| 2026-04-27 20:20 | 44.29786 | 14.94924 | 35089 ft | 449 kts | 122° |
| 2026-04-27 20:21 | 44.26285 | 15.02135 | 35096 ft | 449 kts | 122° |
| 2026-04-27 20:21 | 44.22773 | 15.09347 | 35104 ft | 450 kts | 123° |
| 2026-04-27 20:22 | 44.19250 | 15.16566 | 35111 ft | 450 kts | 123° |
| 2026-04-27 20:22 | 44.15726 | 15.23777 | 35107 ft | 450 kts | 123° |
| 2026-04-27 20:23 | 44.12201 | 15.30964 | 35112 ft | 449 kts | 123° |
| 2026-04-27 20:23 | 44.08623 | 15.38104 | 35118 ft | 450 kts | 125° |
| 2026-04-27 20:24 | 44.04900 | 15.45064 | 35115 ft | 451 kts | 126° |
| 2026-04-27 20:24 | 44.01163 | 15.52009 | 35106 ft | 451 kts | 126° |
| 2026-04-27 20:25 | 43.97409 | 15.58983 | 35101 ft | 451 kts | 126° |
| 2026-04-27 20:25 | 43.93653 | 15.65947 | 35104 ft | 451 kts | 126° |
| 2026-04-27 20:26 | 43.89882 | 15.72922 | 35079 ft | 452 kts | 126° |
| 2026-04-27 20:26 | 43.86110 | 15.79887 | 35081 ft | 452 kts | 126° |
| 2026-04-27 20:27 | 43.82330 | 15.86849 | 35086 ft | 452 kts | 126° |
| 2026-04-27 20:27 | 43.78546 | 15.93802 | 35089 ft | 452 kts | 126° |
| 2026-04-27 20:28 | 43.74759 | 16.00741 | 35095 ft | 452 kts | 126° |
| 2026-04-27 20:28 | 43.71603 | 16.06505 | 35086 ft | 453 kts | 126° |
| 2026-04-27 20:29 | 43.67181 | 16.14575 | 35085 ft | 453 kts | 126° |
| 2026-04-27 20:29 | 43.63372 | 16.21503 | 35087 ft | 453 kts | 126° |
| 2026-04-27 20:30 | 43.59554 | 16.28438 | 35086 ft | 453 kts | 126° |
| 2026-04-27 20:30 | 43.55733 | 16.35350 | 35085 ft | 453 kts | 126° |
| 2026-04-27 20:31 | 43.51906 | 16.42260 | 35083 ft | 453 kts | 126° |
| 2026-04-27 20:31 | 43.48080 | 16.49160 | 35083 ft | 453 kts | 126° |
| 2026-04-27 20:32 | 43.44274 | 16.56015 | 35085 ft | 453 kts | 127° |
| 2026-04-27 20:32 | 43.40421 | 16.62939 | 35091 ft | 453 kts | 127° |
| 2026-04-27 20:33 | 43.36605 | 16.69770 | 35094 ft | 453 kts | 127° |
| 2026-04-27 20:33 | 43.32737 | 16.76675 | 35097 ft | 453 kts | 127° |
| 2026-04-27 20:34 | 43.28918 | 16.83481 | 35101 ft | 453 kts | 127° |
| 2026-04-27 20:34 | 43.25063 | 16.90327 | 35098 ft | 453 kts | 127° |
| 2026-04-27 20:35 | 43.21204 | 16.97166 | 35102 ft | 453 kts | 127° |
| 2026-04-27 20:35 | 43.17343 | 17.03995 | 35102 ft | 453 kts | 127° |
| 2026-04-27 20:36 | 43.13478 | 17.10819 | 35107 ft | 453 kts | 127° |
| 2026-04-27 20:36 | 43.09606 | 17.17638 | 35100 ft | 453 kts | 127° |
| 2026-04-27 20:37 | 43.05762 | 17.24387 | 35102 ft | 453 kts | 127° |
| 2026-04-27 20:37 | 43.01905 | 17.31195 | 35098 ft | 453 kts | 124° |
| 2026-04-27 20:38 | 42.98438 | 17.38372 | 35088 ft | 452 kts | 121° |
| 2026-04-27 20:38 | 42.95020 | 17.45587 | 35095 ft | 453 kts | 121° |
| 2026-04-27 20:39 | 42.91588 | 17.52791 | 35087 ft | 453 kts | 122° |
| 2026-04-27 20:39 | 42.88152 | 17.59980 | 35090 ft | 452 kts | 122° |
| 2026-04-27 20:40 | 42.84716 | 17.67155 | 35082 ft | 452 kts | 122° |
| 2026-04-27 20:40 | 42.81280 | 17.74314 | 35087 ft | 451 kts | 122° |
| 2026-04-27 20:41 | 42.79553 | 17.77910 | 34931 ft | 454 kts | 122° |
| 2026-04-27 20:41 | 42.77842 | 17.81464 | 34635 ft | 445 kts | 122° |
| 2026-04-27 20:41 | 42.76154 | 17.84967 | 34366 ft | 440 kts | 121° |
| 2026-04-27 20:41 | 42.74484 | 17.88431 | 34122 ft | 438 kts | 121° |
| 2026-04-27 20:42 | 42.72813 | 17.91895 | 33850 ft | 437 kts | 121° |
| 2026-04-27 20:42 | 42.71148 | 17.95336 | 33572 ft | 435 kts | 122° |
| 2026-04-27 20:42 | 42.69492 | 17.98758 | 33292 ft | 432 kts | 121° |
| 2026-04-27 20:42 | 42.67839 | 18.02166 | 33015 ft | 430 kts | 121° |
| 2026-04-27 20:43 | 42.66196 | 18.05550 | 32761 ft | 428 kts | 121° |
| 2026-04-27 20:43 | 42.64581 | 18.08875 | 32502 ft | 426 kts | 121° |
| 2026-04-27 20:43 | 42.62953 | 18.12220 | 32238 ft | 424 kts | 121° |
| 2026-04-27 20:43 | 42.61329 | 18.15555 | 31977 ft | 422 kts | 121° |
| 2026-04-27 20:44 | 42.59715 | 18.18863 | 31718 ft | 420 kts | 121° |
| 2026-04-27 20:44 | 42.58103 | 18.22161 | 31463 ft | 418 kts | 121° |
| 2026-04-27 20:44 | 42.56497 | 18.25439 | 31211 ft | 416 kts | 121° |
| 2026-04-27 20:44 | 42.54887 | 18.28683 | 30960 ft | 414 kts | 122° |
| 2026-04-27 20:45 | 42.53253 | 18.31895 | 30684 ft | 411 kts | 122° |
| 2026-04-27 20:45 | 42.51635 | 18.35066 | 30288 ft | 407 kts | 122° |
| 2026-04-27 20:45 | 42.50030 | 18.38204 | 29773 ft | 404 kts | 122° |
| 2026-04-27 20:45 | 42.48425 | 18.41334 | 29227 ft | 402 kts | 122° |
| 2026-04-27 20:46 | 42.46836 | 18.44429 | 28720 ft | 399 kts | 122° |
| 2026-04-27 20:46 | 42.45251 | 18.47509 | 28222 ft | 397 kts | 122° |
| 2026-04-27 20:46 | 42.43648 | 18.50534 | 27757 ft | 393 kts | 123° |
| 2026-04-27 20:46 | 42.42065 | 18.53489 | 27287 ft | 391 kts | 123° |
| 2026-04-27 20:47 | 42.40285 | 18.56338 | 26794 ft | 391 kts | 134° |
| 2026-04-27 20:47 | 42.38316 | 18.58784 | 26335 ft | 389 kts | 137° |
| 2026-04-27 20:47 | 42.36294 | 18.61206 | 25858 ft | 388 kts | 137° |
| 2026-04-27 20:47 | 42.34283 | 18.63616 | 25409 ft | 386 kts | 137° |
| 2026-04-27 20:48 | 42.32278 | 18.66027 | 24963 ft | 384 kts | 137° |
| 2026-04-27 20:48 | 42.30937 | 18.67641 | 24647 ft | 383 kts | 137° |
| 2026-04-27 20:48 | 42.28298 | 18.70819 | 24013 ft | 383 kts | 137° |
| 2026-04-27 20:48 | 42.26309 | 18.73217 | 23524 ft | 382 kts | 137° |
| 2026-04-27 20:49 | 42.24330 | 18.75603 | 23008 ft | 381 kts | 137° |
| 2026-04-27 20:49 | 42.22353 | 18.77979 | 22505 ft | 379 kts | 138° |
| 2026-04-27 20:49 | 42.20389 | 18.80340 | 21996 ft | 378 kts | 138° |
| 2026-04-27 20:49 | 42.18431 | 18.82694 | 21506 ft | 376 kts | 138° |
| 2026-04-27 20:50 | 42.16481 | 18.85038 | 21029 ft | 374 kts | 138° |
| 2026-04-27 20:50 | 42.14543 | 18.87356 | 20557 ft | 372 kts | 138° |
| 2026-04-27 20:50 | 42.12613 | 18.89663 | 20100 ft | 370 kts | 138° |
| 2026-04-27 20:50 | 42.10697 | 18.91960 | 19661 ft | 368 kts | 138° |
| 2026-04-27 20:51 | 42.08787 | 18.94249 | 19223 ft | 366 kts | 138° |
| 2026-04-27 20:51 | 42.06889 | 18.96522 | 18786 ft | 364 kts | 138° |
| 2026-04-27 20:51 | 42.05005 | 18.98770 | 18356 ft | 359 kts | 138° |
| 2026-04-27 20:51 | 42.03149 | 19.00983 | 17888 ft | 354 kts | 138° |
| 2026-04-27 20:52 | 42.01322 | 19.03162 | 17449 ft | 348 kts | 138° |
| 2026-04-27 20:52 | 41.99521 | 19.05306 | 17033 ft | 343 kts | 138° |
| 2026-04-27 20:52 | 41.97756 | 19.07409 | 16635 ft | 337 kts | 138° |
| 2026-04-27 20:52 | 41.96041 | 19.09450 | 16258 ft | 331 kts | 138° |
| 2026-04-27 20:53 | 41.94329 | 19.11486 | 15839 ft | 327 kts | 138° |
| 2026-04-27 20:53 | 41.92637 | 19.13495 | 15389 ft | 324 kts | 138° |
| 2026-04-27 20:53 | 41.90952 | 19.15495 | 14941 ft | 321 kts | 138° |
| 2026-04-27 20:53 | 41.89281 | 19.17477 | 14505 ft | 319 kts | 138° |
| 2026-04-27 20:54 | 41.85979 | 19.21383 | 13618 ft | 314 kts | 138° |
| 2026-04-27 20:54 | 41.84351 | 19.23310 | 13163 ft | 311 kts | 138° |
| 2026-04-27 20:54 | 41.82733 | 19.25225 | 12715 ft | 308 kts | 138° |
| 2026-04-27 20:55 | 41.81135 | 19.27113 | 12278 ft | 305 kts | 138° |
| 2026-04-27 20:55 | 41.79571 | 19.28959 | 11854 ft | 302 kts | 138° |
| 2026-04-27 20:55 | 41.78006 | 19.30812 | 11424 ft | 299 kts | 137° |
| 2026-04-27 20:55 | 41.76586 | 19.32823 | 11003 ft | 296 kts | 130° |
| 2026-04-27 20:56 | 41.75268 | 19.34929 | 10496 ft | 293 kts | 129° |
| 2026-04-27 20:56 | 41.73972 | 19.37015 | 10008 ft | 290 kts | 131° |
| 2026-04-27 20:56 | 41.72421 | 19.38685 | 9445 ft | 287 kts | 154° |
| 2026-04-27 20:56 | 41.70519 | 19.39415 | 8898 ft | 284 kts | 172° |
| 2026-04-27 20:57 | 41.68559 | 19.39719 | 8362 ft | 282 kts | 174° |
| 2026-04-27 20:57 | 41.66608 | 19.39960 | 7840 ft | 280 kts | 175° |
| 2026-04-27 20:57 | 41.64680 | 19.40262 | 7322 ft | 278 kts | 168° |
| 2026-04-27 20:57 | 41.62885 | 19.41163 | 6794 ft | 276 kts | 147° |
| 2026-04-27 20:58 | 41.61498 | 19.42904 | 6257 ft | 274 kts | 124° |
| 2026-04-27 20:58 | 41.60741 | 19.45212 | 5715 ft | 272 kts | 101° |
| 2026-04-27 20:58 | 41.60710 | 19.47717 | 5177 ft | 270 kts | 78° |
| 2026-04-27 20:58 | 41.61378 | 19.50032 | 4646 ft | 268 kts | 57° |
| 2026-04-27 20:59 | 41.62534 | 19.51970 | 4181 ft | 265 kts | 48° |
| 2026-04-27 20:59 | 41.63572 | 19.53998 | 3989 ft | 266 kts | 69° |
| 2026-04-27 20:59 | 41.63942 | 19.56368 | 3964 ft | 253 kts | 83° |
| 2026-04-27 20:59 | 41.64115 | 19.58629 | 3954 ft | 236 kts | 84° |
| 2026-04-27 21:00 | 41.64266 | 19.60784 | 3954 ft | 232 kts | 84° |
| 2026-04-27 21:00 | 41.64417 | 19.62932 | 3967 ft | 232 kts | 84° |
| 2026-04-27 21:00 | 41.64569 | 19.65053 | 3970 ft | 232 kts | 84° |
| 2026-04-27 21:00 | 41.64479 | 19.67190 | 3972 ft | 233 kts | 109° |
| 2026-04-27 21:01 | 41.63555 | 19.68893 | 3962 ft | 222 kts | 146° |
| 2026-04-27 21:01 | 41.62159 | 19.69593 | 3825 ft | 213 kts | 171° |
| 2026-04-27 21:01 | 41.60684 | 19.69762 | 3602 ft | 213 kts | 178° |
| 2026-04-27 21:01 | 41.59206 | 19.69825 | 3344 ft | 212 kts | 178° |
| 2026-04-27 21:02 | 41.58233 | 19.69887 | 3159 ft | 211 kts | 176° |
| 2026-04-27 21:02 | 41.56773 | 19.70028 | 2878 ft | 210 kts | 174° |
| 2026-04-27 21:02 | 41.55345 | 19.70209 | 2627 ft | 197 kts | 174° |
| 2026-04-27 21:02 | 41.54032 | 19.70383 | 2395 ft | 185 kts | 174° |
| 2026-04-27 21:03 | 41.52784 | 19.70549 | 2155 ft | 175 kts | 174° |
| 2026-04-27 21:03 | 41.51625 | 19.70704 | 1941 ft | 157 kts | 174° |
| 2026-04-27 21:03 | 41.50609 | 19.70840 | 1702 ft | 143 kts | 174° |
| 2026-04-27 21:03 | 41.49623 | 19.70972 | 1491 ft | 142 kts | 174° |
| 2026-04-27 21:04 | 41.48649 | 19.71103 | 1319 ft | 141 kts | 174° |
| 2026-04-27 21:04 | 41.47671 | 19.71237 | 1147 ft | 140 kts | 173° |
| 2026-04-27 21:04 | 41.46699 | 19.71361 | 957 ft | 139 kts | 174° |
| 2026-04-27 21:04 | 41.45738 | 19.71470 | 758 ft | 138 kts | 174° |
| 2026-04-27 21:05 | 41.44782 | 19.71606 | 584 ft | 138 kts | 173° |
| 2026-04-27 21:05 | 41.43829 | 19.71750 | 391 ft | 138 kts | 174° |
| 2026-04-27 21:05 | 41.42890 | 19.71872 | 223 ft | 138 kts | 174° |
| 2026-04-27 21:05 | 41.41949 | 19.71994 | 129 ft | 126 kts | 174° |
| 2026-04-27 21:06 | 41.41269 | 19.72084 | 134 ft | 71 kts | 174° |
| 2026-04-27 21:06 | 41.40885 | 19.72130 | 138 ft | 39 kts | 178° |
| 2026-04-27 21:06 | 41.40729 | 19.72159 | 140 ft | 20 kts | 183° |
| 2026-04-27 21:06 | 41.40670 | 19.72054 | 138 ft | 16 kts | 256° |
| 2026-04-27 21:07 | 41.40642 | 19.71906 | 137 ft | 17 kts | 257° |
| 2026-04-27 21:07 | 41.40657 | 19.71773 | 137 ft | 16 kts | 339° |
| 2026-04-27 21:07 | 41.40730 | 19.71765 | 137 ft | 10 kts | 353° |
| 2026-04-27 21:07 | 41.40808 | 19.71747 | 137 ft | 13 kts | 350° |
| 2026-04-27 21:08 | 41.40909 | 19.71720 | 137 ft | 17 kts | 352° |
| 2026-04-27 21:08 | 41.41036 | 19.71703 | 136 ft | 20 kts | 354° |
| 2026-04-27 21:08 | 41.41177 | 19.71683 | 135 ft | 21 kts | 354° |
| 2026-04-27 21:08 | 41.41326 | 19.71663 | 134 ft | 22 kts | 355° |
| 2026-04-27 21:09 | 41.41484 | 19.71639 | 133 ft | 23 kts | 356° |
| 2026-04-27 21:09 | 41.41649 | 19.71620 | 129 ft | 24 kts | 356° |
| 2026-04-27 21:09 | 41.41809 | 19.71599 | 130 ft | 19 kts | 356° |
| 2026-04-27 21:09 | 41.41900 | 19.71587 | 125 ft | 8 kts | 357° |
| 2026-04-27 21:10 | 41.41958 | 19.71578 | 125 ft | 9 kts | 354° |
| 2026-04-27 21:10 | 41.42019 | 19.71569 | 127 ft | 5 kts | 346° |
| 2026-04-27 21:10 | 41.42031 | 19.71548 | 125 ft | 2 kts | 264° |
| 2026-04-27 21:10 | 41.42028 | 19.71529 | 126 ft | 0 kts | 264° |
| 2026-04-27 21:11 | 41.42028 | 19.71525 | 126 ft | 0 kts | 264° |
| 2026-04-27 21:11 | 41.42028 | 19.71513 | 127 ft | 0 kts | 266° |
| 2026-04-27 21:12 | 41.42027 | 19.71506 | 128 ft | 0 kts | 263° |
| 2026-04-27 21:12 | 41.42027 | 19.71505 | 128 ft | 0 kts | 265° |